sensor_id;sensor_type;location;lat;lon;timestamp;pressure;altitude;pressure_sealevel;temperature;humidity
18697;BME280;22617;43.690;27.956;2022-09-12T00:02:25;98207.38;;;19.26;65.60
18697;BME280;22617;43.690;27.956;2022-09-12T00:07:29;98198.38;;;19.12;66.05
18697;BME280;22617;43.690;27.956;2022-09-12T00:12:32;98202.41;;;19.20;66.06
18697;BME280;22617;43.690;27.956;2022-09-12T00:17:38;98203.50;;;19.33;66.14
18697;BME280;22617;43.690;27.956;2022-09-12T00:22:42;98193.38;;;19.24;66.51
18697;BME280;22617;43.690;27.956;2022-09-12T00:27:45;98186.72;;;19.16;66.87
18697;BME280;22617;43.690;27.956;2022-09-12T00:32:50;98185.41;;;19.08;66.66
18697;BME280;22617;43.690;27.956;2022-09-12T00:37:55;98204.78;;;19.08;67.07
18697;BME280;22617;43.690;27.956;2022-09-12T00:42:59;98204.44;;;19.14;66.93
18697;BME280;22617;43.690;27.956;2022-09-12T00:48:04;98200.78;;;19.00;67.00
18697;BME280;22617;43.690;27.956;2022-09-12T00:53:08;98195.84;;;18.94;67.32
18697;BME280;22617;43.690;27.956;2022-09-12T00:58:15;98202.91;;;18.93;67.13
18697;BME280;22617;43.690;27.956;2022-09-12T01:03:22;98216.88;;;18.95;67.30
18697;BME280;22617;43.690;27.956;2022-09-12T01:08:27;98230.94;;;18.96;66.93
18697;BME280;22617;43.690;27.956;2022-09-12T01:13:32;98242.25;;;18.81;67.29
18697;BME280;22617;43.690;27.956;2022-09-12T01:18:54;98225.03;;;18.91;67.19
18697;BME280;22617;43.690;27.956;2022-09-12T01:24:17;98231.03;;;18.94;66.88
18697;BME280;22617;43.690;27.956;2022-09-12T01:34:59;98233.63;;;18.77;67.42
18697;BME280;22617;43.690;27.956;2022-09-12T01:40:11;98250.25;;;18.79;67.48
18697;BME280;22617;43.690;27.956;2022-09-12T01:45:20;98260.25;;;18.72;67.73
18697;BME280;22617;43.690;27.956;2022-09-12T01:50:31;98234.44;;;18.79;67.57
18697;BME280;22617;43.690;27.956;2022-09-12T01:55:41;98240.06;;;18.71;67.73
18697;BME280;22617;43.690;27.956;2022-09-12T02:01:02;98236.34;;;18.76;67.94
18697;BME280;22617;43.690;27.956;2022-09-12T02:06:14;98231.44;;;18.68;68.13
18697;BME280;22617;43.690;27.956;2022-09-12T02:11:20;98233.28;;;18.66;68.30
18697;BME280;22617;43.690;27.956;2022-09-12T02:16:30;98233.84;;;18.72;68.31
18697;BME280;22617;43.690;27.956;2022-09-12T02:21:37;98222.44;;;18.72;68.50
18697;BME280;22617;43.690;27.956;2022-09-12T02:26:46;98222.97;;;18.61;68.89
18697;BME280;22617;43.690;27.956;2022-09-12T02:31:54;98217.84;;;18.58;69.20
18697;BME280;22617;43.690;27.956;2022-09-12T02:37:06;98232.47;;;18.65;69.15
18697;BME280;22617;43.690;27.956;2022-09-12T02:42:15;98229.59;;;18.70;68.99
18697;BME280;22617;43.690;27.956;2022-09-12T02:47:24;98234.47;;;18.60;69.13
18697;BME280;22617;43.690;27.956;2022-09-12T02:52:31;98228.97;;;18.65;69.16
18697;BME280;22617;43.690;27.956;2022-09-12T02:57:34;98234.84;;;18.51;69.52
18697;BME280;22617;43.690;27.956;2022-09-12T03:02:49;98234.94;;;18.50;69.68
18697;BME280;22617;43.690;27.956;2022-09-12T03:08:09;98236.56;;;18.52;69.90
18697;BME280;22617;43.690;27.956;2022-09-12T03:13:20;98242.72;;;18.53;69.79
18697;BME280;22617;43.690;27.956;2022-09-12T03:18:36;98250.53;;;18.56;69.63
18697;BME280;22617;43.690;27.956;2022-09-12T03:23:46;98255.28;;;18.48;69.81
18697;BME280;22617;43.690;27.956;2022-09-12T03:28:54;98258.06;;;18.45;70.03
18697;BME280;22617;43.690;27.956;2022-09-12T03:33:59;98254.38;;;18.30;70.40
18697;BME280;22617;43.690;27.956;2022-09-12T03:39:04;98257.75;;;18.32;70.62
18697;BME280;22617;43.690;27.956;2022-09-12T03:44:07;98253.16;;;18.18;70.94
18697;BME280;22617;43.690;27.956;2022-09-12T03:49:11;98249.94;;;18.12;71.26
18697;BME280;22617;43.690;27.956;2022-09-12T03:54:16;98247.88;;;18.18;71.44
18697;BME280;22617;43.690;27.956;2022-09-12T03:59:19;98247.81;;;18.20;71.33
18697;BME280;22617;43.690;27.956;2022-09-12T04:04:23;98252.59;;;18.30;71.08
18697;BME280;22617;43.690;27.956;2022-09-12T04:09:28;98243.75;;;18.32;70.93
18697;BME280;22617;43.690;27.956;2022-09-12T04:14:31;98245.66;;;18.28;71.02
18697;BME280;22617;43.690;27.956;2022-09-12T04:19:35;98249.78;;;18.34;71.07
18697;BME280;22617;43.690;27.956;2022-09-12T04:24:40;98263.25;;;18.27;71.19
18697;BME280;22617;43.690;27.956;2022-09-12T04:29:44;98263.19;;;18.29;71.09
18697;BME280;22617;43.690;27.956;2022-09-12T04:34:47;98271.50;;;18.21;71.45
18697;BME280;22617;43.690;27.956;2022-09-12T04:39:52;98262.78;;;18.19;71.64
18697;BME280;22617;43.690;27.956;2022-09-12T04:44:58;98276.81;;;18.20;71.73
18697;BME280;22617;43.690;27.956;2022-09-12T04:50:05;98287.84;;;18.09;72.12
18697;BME280;22617;43.690;27.956;2022-09-12T04:55:10;98281.72;;;18.27;71.86
18697;BME280;22617;43.690;27.956;2022-09-12T05:00:14;98289.66;;;18.27;71.75
18697;BME280;22617;43.690;27.956;2022-09-12T05:05:17;98284.94;;;18.34;71.80
18697;BME280;22617;43.690;27.956;2022-09-12T05:10:22;98279.47;;;18.20;71.86
18697;BME280;22617;43.690;27.956;2022-09-12T05:15:26;98274.56;;;18.31;72.01
18697;BME280;22617;43.690;27.956;2022-09-12T05:20:29;98284.50;;;18.43;71.39
18697;BME280;22617;43.690;27.956;2022-09-12T05:25:34;98279.50;;;18.37;71.61
18697;BME280;22617;43.690;27.956;2022-09-12T05:30:38;98297.72;;;18.43;72.10
18697;BME280;22617;43.690;27.956;2022-09-12T05:35:41;98292.81;;;18.36;72.47
18697;BME280;22617;43.690;27.956;2022-09-12T05:40:46;98273.91;;;18.45;72.31
18697;BME280;22617;43.690;27.956;2022-09-12T05:45:49;98273.03;;;18.44;72.33
18697;BME280;22617;43.690;27.956;2022-09-12T05:50:58;98274.38;;;18.53;72.26
18697;BME280;22617;43.690;27.956;2022-09-12T05:56:06;98279.94;;;18.47;72.65
18697;BME280;22617;43.690;27.956;2022-09-12T06:01:11;98269.63;;;18.61;72.26
18697;BME280;22617;43.690;27.956;2022-09-12T06:06:16;98279.50;;;18.93;71.44
18697;BME280;22617;43.690;27.956;2022-09-12T06:11:25;98277.41;;;19.17;70.35
18697;BME280;22617;43.690;27.956;2022-09-12T06:16:30;98283.91;;;19.46;69.37
18697;BME280;22617;43.690;27.956;2022-09-12T06:21:34;98285.03;;;19.75;68.17
18697;BME280;22617;43.690;27.956;2022-09-12T06:26:40;98289.53;;;19.73;67.88
18697;BME280;22617;43.690;27.956;2022-09-12T06:31:44;98292.19;;;20.06;67.25
18697;BME280;22617;43.690;27.956;2022-09-12T06:36:48;98287.97;;;20.19;67.01
18697;BME280;22617;43.690;27.956;2022-09-12T06:41:53;98291.34;;;20.38;66.55
18697;BME280;22617;43.690;27.956;2022-09-12T06:47:07;98286.81;;;20.71;65.50
18697;BME280;22617;43.690;27.956;2022-09-12T06:52:10;98292.00;;;20.88;64.67
18697;BME280;22617;43.690;27.956;2022-09-12T06:57:15;98291.03;;;21.21;64.53
18697;BME280;22617;43.690;27.956;2022-09-12T07:02:19;98279.88;;;21.30;63.07
18697;BME280;22617;43.690;27.956;2022-09-12T07:07:22;98290.00;;;21.53;62.62
18697;BME280;22617;43.690;27.956;2022-09-12T07:12:28;98290.41;;;21.75;62.00
18697;BME280;22617;43.690;27.956;2022-09-12T07:17:35;98291.03;;;21.95;61.55
18697;BME280;22617;43.690;27.956;2022-09-12T07:22:38;98280.41;;;22.23;60.97
18697;BME280;22617;43.690;27.956;2022-09-12T07:27:43;98275.56;;;22.44;59.49
18697;BME280;22617;43.690;27.956;2022-09-12T07:32:52;98284.34;;;22.73;59.53
18697;BME280;22617;43.690;27.956;2022-09-12T07:37:55;98280.41;;;22.92;57.69
18697;BME280;22617;43.690;27.956;2022-09-12T07:43:00;98283.53;;;23.12;57.38
18697;BME280;22617;43.690;27.956;2022-09-12T07:48:03;98274.84;;;23.49;56.23
18697;BME280;22617;43.690;27.956;2022-09-12T07:53:07;98276.53;;;23.63;57.94
18697;BME280;22617;43.690;27.956;2022-09-12T07:58:12;98295.72;;;23.93;56.18
18697;BME280;22617;43.690;27.956;2022-09-12T08:03:16;98278.06;;;23.92;56.27
18697;BME280;22617;43.690;27.956;2022-09-12T08:08:20;98274.84;;;24.00;53.69
18697;BME280;22617;43.690;27.956;2022-09-12T08:13:25;98271.97;;;24.28;55.99
18697;BME280;22617;43.690;27.956;2022-09-12T08:18:29;98276.75;;;24.36;54.04
18697;BME280;22617;43.690;27.956;2022-09-12T08:23:33;98275.38;;;24.17;52.41
18697;BME280;22617;43.690;27.956;2022-09-12T08:28:39;98268.13;;;24.68;53.01
18697;BME280;22617;43.690;27.956;2022-09-12T08:33:42;98267.69;;;24.74;51.21
18697;BME280;22617;43.690;27.956;2022-09-12T08:38:48;98266.00;;;24.73;51.80
18697;BME280;22617;43.690;27.956;2022-09-12T08:44:00;98262.91;;;25.03;49.90
18697;BME280;22617;43.690;27.956;2022-09-12T08:49:09;98261.28;;;25.25;49.59
18697;BME280;22617;43.690;27.956;2022-09-12T08:54:19;98256.00;;;25.47;49.80
18697;BME280;22617;43.690;27.956;2022-09-12T08:59:25;98249.97;;;26.24;49.90
18697;BME280;22617;43.690;27.956;2022-09-12T09:04:36;98258.84;;;26.25;50.44
18697;BME280;22617;43.690;27.956;2022-09-12T09:09:57;98243.03;;;26.66;50.54
18697;BME280;22617;43.690;27.956;2022-09-12T09:15:35;98244.09;;;26.75;47.82
18697;BME280;22617;43.690;27.956;2022-09-12T09:20:46;98236.59;;;27.01;47.74
18697;BME280;22617;43.690;27.956;2022-09-12T09:25:55;98218.31;;;27.38;46.51
18697;BME280;22617;43.690;27.956;2022-09-12T09:31:02;98222.91;;;26.94;47.62
18697;BME280;22617;43.690;27.956;2022-09-12T09:36:15;98221.09;;;27.15;47.29
18697;BME280;22617;43.690;27.956;2022-09-12T09:41:40;98218.63;;;26.92;48.29
18697;BME280;22617;43.690;27.956;2022-09-12T09:46:52;98235.00;;;26.55;49.02
18697;BME280;22617;43.690;27.956;2022-09-12T09:51:58;98221.53;;;25.79;49.05
18697;BME280;22617;43.690;27.956;2022-09-12T09:57:02;98224.09;;;26.02;50.13
18697;BME280;22617;43.690;27.956;2022-09-12T10:02:19;98224.81;;;25.82;49.24
18697;BME280;22617;43.690;27.956;2022-09-12T10:07:25;98219.31;;;25.15;50.93
18697;BME280;22617;43.690;27.956;2022-09-12T10:12:30;98235.31;;;25.50;49.53
18697;BME280;22617;43.690;27.956;2022-09-12T10:17:42;98234.28;;;25.05;49.92
18697;BME280;22617;43.690;27.956;2022-09-12T10:22:47;98226.97;;;24.72;50.85
18697;BME280;22617;43.690;27.956;2022-09-12T10:27:53;98209.41;;;26.84;48.76
18697;BME280;22617;43.690;27.956;2022-09-12T10:33:07;98211.56;;;27.02;46.89
18697;BME280;22617;43.690;27.956;2022-09-12T10:38:16;98217.22;;;27.61;46.74
18697;BME280;22617;43.690;27.956;2022-09-12T10:43:26;98207.47;;;28.41;45.04
18697;BME280;22617;43.690;27.956;2022-09-12T10:48:33;98209.25;;;28.71;45.55
18697;BME280;22617;43.690;27.956;2022-09-12T10:53:39;98220.00;;;29.19;43.11
18697;BME280;22617;43.690;27.956;2022-09-12T10:58:57;98202.06;;;28.32;43.34
18697;BME280;22617;43.690;27.956;2022-09-12T11:04:25;98215.06;;;26.70;45.73
18697;BME280;22617;43.690;27.956;2022-09-12T11:09:35;98215.34;;;27.52;44.16
18697;BME280;22617;43.690;27.956;2022-09-12T11:14:54;98194.09;;;28.60;42.55
18697;BME280;22617;43.690;27.956;2022-09-12T11:20:27;98201.03;;;28.13;44.21
18697;BME280;22617;43.690;27.956;2022-09-12T11:25:38;98198.13;;;27.13;45.78
18697;BME280;22617;43.690;27.956;2022-09-12T11:30:54;98214.84;;;25.95;46.60
18697;BME280;22617;43.690;27.956;2022-09-12T11:36:06;98216.88;;;26.70;46.08
18697;BME280;22617;43.690;27.956;2022-09-12T11:41:19;98192.09;;;27.52;43.84
18697;BME280;22617;43.690;27.956;2022-09-12T11:46:30;98196.19;;;28.47;42.71
18697;BME280;22617;43.690;27.956;2022-09-12T11:51:40;98197.41;;;29.31;41.59
18697;BME280;22617;43.690;27.956;2022-09-12T11:56:48;98197.53;;;28.02;43.95
18697;BME280;22617;43.690;27.956;2022-09-12T12:01:57;98197.88;;;26.08;46.38
18697;BME280;22617;43.690;27.956;2022-09-12T12:07:05;98190.81;;;26.51;45.91
18697;BME280;22617;43.690;27.956;2022-09-12T12:12:14;98200.91;;;26.25;46.07
18697;BME280;22617;43.690;27.956;2022-09-12T12:17:22;98193.97;;;25.67;46.65
18697;BME280;22617;43.690;27.956;2022-09-12T12:22:27;98202.13;;;25.88;47.10
18697;BME280;22617;43.690;27.956;2022-09-12T12:27:49;98183.28;;;26.88;45.81
18697;BME280;22617;43.690;27.956;2022-09-12T12:32:58;98190.94;;;25.72;46.10
18697;BME280;22617;43.690;27.956;2022-09-12T12:38:06;98203.94;;;25.30;46.45
18697;BME280;22617;43.690;27.956;2022-09-12T12:43:29;98203.53;;;25.12;47.47
18697;BME280;22617;43.690;27.956;2022-09-12T12:49:05;98198.56;;;25.08;46.95
18697;BME280;22617;43.690;27.956;2022-09-12T12:59:51;98193.19;;;25.32;47.21
18697;BME280;22617;43.690;27.956;2022-09-12T13:04:57;98193.47;;;25.16;47.59
18697;BME280;22617;43.690;27.956;2022-09-12T13:10:06;98195.34;;;24.92;47.17
18697;BME280;22617;43.690;27.956;2022-09-12T13:15:49;98196.06;;;25.17;47.39
18697;BME280;22617;43.690;27.956;2022-09-12T13:20:59;98186.59;;;25.71;45.96
18697;BME280;22617;43.690;27.956;2022-09-12T13:26:10;98182.31;;;26.46;44.38
18697;BME280;22617;43.690;27.956;2022-09-12T13:31:20;98187.22;;;27.05;44.84
18697;BME280;22617;43.690;27.956;2022-09-12T13:36:40;98187.91;;;26.21;44.08
18697;BME280;22617;43.690;27.956;2022-09-12T13:42:24;98186.63;;;25.47;45.11
18697;BME280;22617;43.690;27.956;2022-09-12T13:47:35;98183.22;;;24.88;46.14
18697;BME280;22617;43.690;27.956;2022-09-12T13:52:45;98172.50;;;26.02;45.83
18697;BME280;22617;43.690;27.956;2022-09-12T13:57:56;98171.78;;;26.22;44.54
18697;BME280;22617;43.690;27.956;2022-09-12T14:03:16;98174.56;;;25.76;44.48
18697;BME280;22617;43.690;27.956;2022-09-12T14:08:45;98171.16;;;25.63;45.06
18697;BME280;22617;43.690;27.956;2022-09-12T14:13:49;98171.13;;;26.41;43.45
18697;BME280;22617;43.690;27.956;2022-09-12T14:18:55;98177.44;;;26.51;43.15
18697;BME280;22617;43.690;27.956;2022-09-12T14:24:02;98175.09;;;26.58;43.79
18697;BME280;22617;43.690;27.956;2022-09-12T14:29:07;98173.31;;;26.47;44.04
18697;BME280;22617;43.690;27.956;2022-09-12T14:34:14;98187.44;;;25.60;45.18
18697;BME280;22617;43.690;27.956;2022-09-12T14:39:22;98190.06;;;25.03;46.36
18697;BME280;22617;43.690;27.956;2022-09-12T14:44:27;98193.88;;;24.51;47.65
18697;BME280;22617;43.690;27.956;2022-09-12T14:49:35;98199.41;;;24.24;50.03
18697;BME280;22617;43.690;27.956;2022-09-12T14:54:39;98197.38;;;24.15;50.37
18697;BME280;22617;43.690;27.956;2022-09-12T14:59:45;98198.66;;;24.22;50.25
18697;BME280;22617;43.690;27.956;2022-09-12T15:04:51;98211.78;;;24.00;50.45
18697;BME280;22617;43.690;27.956;2022-09-12T15:09:56;98209.25;;;23.61;50.57
18697;BME280;22617;43.690;27.956;2022-09-12T15:15:12;98194.78;;;23.65;49.51
18697;BME280;22617;43.690;27.956;2022-09-12T15:20:17;98186.78;;;23.39;50.61
18697;BME280;22617;43.690;27.956;2022-09-12T15:25:21;98182.44;;;23.51;51.73
18697;BME280;22617;43.690;27.956;2022-09-12T15:30:24;98186.88;;;23.38;52.26
18697;BME280;22617;43.690;27.956;2022-09-12T15:35:31;98186.78;;;23.39;53.56
18697;BME280;22617;43.690;27.956;2022-09-12T15:40:35;98188.16;;;23.32;54.35
18697;BME280;22617;43.690;27.956;2022-09-12T15:45:47;98184.97;;;23.27;55.11
18697;BME280;22617;43.690;27.956;2022-09-12T15:50:53;98183.47;;;23.23;55.27
18697;BME280;22617;43.690;27.956;2022-09-12T15:56:02;98175.59;;;23.09;53.95
18697;BME280;22617;43.690;27.956;2022-09-12T16:01:06;98185.34;;;22.96;54.50
18697;BME280;22617;43.690;27.956;2022-09-12T16:06:13;98200.00;;;22.89;53.80
18697;BME280;22617;43.690;27.956;2022-09-12T16:11:19;98198.53;;;22.44;54.55
18697;BME280;22617;43.690;27.956;2022-09-12T16:16:23;98206.63;;;22.28;55.54
18697;BME280;22617;43.690;27.956;2022-09-12T16:21:28;98220.00;;;22.27;55.62
18697;BME280;22617;43.690;27.956;2022-09-12T16:26:32;98224.56;;;22.25;55.77
18697;BME280;22617;43.690;27.956;2022-09-12T16:31:36;98221.22;;;22.21;56.66
18697;BME280;22617;43.690;27.956;2022-09-12T16:36:42;98233.56;;;22.08;57.18
18697;BME280;22617;43.690;27.956;2022-09-12T16:41:46;98248.00;;;22.04;57.14
18697;BME280;22617;43.690;27.956;2022-09-12T16:46:49;98292.13;;;21.91;57.77
18697;BME280;22617;43.690;27.956;2022-09-12T16:51:54;98299.09;;;21.77;57.57
18697;BME280;22617;43.690;27.956;2022-09-12T16:56:57;98299.25;;;21.46;58.22
18697;BME280;22617;43.690;27.956;2022-09-12T17:02:01;98265.47;;;21.20;64.00
18697;BME280;22617;43.690;27.956;2022-09-12T17:07:07;98266.22;;;20.76;67.30
18697;BME280;22617;43.690;27.956;2022-09-12T17:12:11;98247.69;;;20.61;69.09
18697;BME280;22617;43.690;27.956;2022-09-12T17:17:14;98238.22;;;20.57;69.68
18697;BME280;22617;43.690;27.956;2022-09-12T17:22:19;98233.44;;;20.32;69.79
18697;BME280;22617;43.690;27.956;2022-09-12T17:27:23;98235.94;;;20.02;71.69
18697;BME280;22617;43.690;27.956;2022-09-12T17:32:26;98239.22;;;19.57;72.80
18697;BME280;22617;43.690;27.956;2022-09-12T17:37:33;98242.47;;;19.46;72.96
18697;BME280;22617;43.690;27.956;2022-09-12T17:42:37;98250.91;;;19.36;72.23
18697;BME280;22617;43.690;27.956;2022-09-12T17:47:41;98253.38;;;19.39;73.03
18697;BME280;22617;43.690;27.956;2022-09-12T17:52:46;98259.25;;;19.45;72.32
18697;BME280;22617;43.690;27.956;2022-09-12T17:57:50;98260.78;;;19.32;72.48
18697;BME280;22617;43.690;27.956;2022-09-12T18:02:53;98261.00;;;19.10;73.16
18697;BME280;22617;43.690;27.956;2022-09-12T18:07:58;98260.69;;;19.16;73.16
18697;BME280;22617;43.690;27.956;2022-09-12T18:13:02;98263.50;;;19.13;72.50
18697;BME280;22617;43.690;27.956;2022-09-12T18:18:06;98283.00;;;18.94;72.99
18697;BME280;22617;43.690;27.956;2022-09-12T18:23:11;98286.25;;;18.99;72.52
18697;BME280;22617;43.690;27.956;2022-09-12T18:28:14;98281.97;;;18.96;73.22
18697;BME280;22617;43.690;27.956;2022-09-12T18:33:19;98271.91;;;18.86;73.87
18697;BME280;22617;43.690;27.956;2022-09-12T18:38:26;98278.75;;;18.90;74.12
18697;BME280;22617;43.690;27.956;2022-09-12T18:43:30;98278.25;;;19.00;73.27
18697;BME280;22617;43.690;27.956;2022-09-12T18:48:33;98281.34;;;18.91;73.22
18697;BME280;22617;43.690;27.956;2022-09-12T18:53:39;98296.19;;;18.94;72.95
18697;BME280;22617;43.690;27.956;2022-09-12T18:58:43;98307.09;;;18.69;72.81
18697;BME280;22617;43.690;27.956;2022-09-12T19:03:48;98295.09;;;18.62;74.67
18697;BME280;22617;43.690;27.956;2022-09-12T19:08:55;98287.94;;;18.83;73.95
18697;BME280;22617;43.690;27.956;2022-09-12T19:14:03;98298.97;;;18.91;73.54
18697;BME280;22617;43.690;27.956;2022-09-12T19:19:06;98297.69;;;19.16;73.06
18697;BME280;22617;43.690;27.956;2022-09-12T19:24:11;98304.28;;;19.25;72.60
18697;BME280;22617;43.690;27.956;2022-09-12T19:29:15;98308.13;;;19.37;71.47
18697;BME280;22617;43.690;27.956;2022-09-12T19:34:19;98299.41;;;19.52;71.37
18697;BME280;22617;43.690;27.956;2022-09-12T19:39:24;98305.66;;;19.51;71.67
18697;BME280;22617;43.690;27.956;2022-09-12T19:44:29;98306.41;;;19.53;71.98
18697;BME280;22617;43.690;27.956;2022-09-12T19:49:32;98306.91;;;19.44;72.68
18697;BME280;22617;43.690;27.956;2022-09-12T19:54:37;98307.16;;;19.38;72.72
18697;BME280;22617;43.690;27.956;2022-09-12T19:59:41;98319.75;;;19.15;73.48
18697;BME280;22617;43.690;27.956;2022-09-12T20:04:46;98316.88;;;19.03;74.13
18697;BME280;22617;43.690;27.956;2022-09-12T20:09:51;98327.31;;;18.87;74.69
18697;BME280;22617;43.690;27.956;2022-09-12T20:14:55;98333.88;;;18.97;72.98
18697;BME280;22617;43.690;27.956;2022-09-12T20:19:59;98331.16;;;18.99;71.98
18697;BME280;22617;43.690;27.956;2022-09-12T20:25:06;98332.09;;;19.15;71.25
18697;BME280;22617;43.690;27.956;2022-09-12T20:30:10;98338.72;;;18.88;70.47
18697;BME280;22617;43.690;27.956;2022-09-12T20:35:15;98335.19;;;18.70;71.18
18697;BME280;22617;43.690;27.956;2022-09-12T20:40:20;98339.25;;;18.58;71.41
18697;BME280;22617;43.690;27.956;2022-09-12T20:45:24;98338.56;;;18.55;71.17
18697;BME280;22617;43.690;27.956;2022-09-12T20:50:28;98353.13;;;18.43;71.95
18697;BME280;22617;43.690;27.956;2022-09-12T20:55:33;98363.22;;;18.54;71.83
18697;BME280;22617;43.690;27.956;2022-09-12T21:00:37;98360.78;;;18.49;72.02
18697;BME280;22617;43.690;27.956;2022-09-12T21:05:40;98374.88;;;18.29;72.60
18697;BME280;22617;43.690;27.956;2022-09-12T21:10:46;98361.81;;;18.26;72.77
18697;BME280;22617;43.690;27.956;2022-09-12T21:15:56;98356.19;;;17.95;73.00
18697;BME280;22617;43.690;27.956;2022-09-12T21:21:00;98358.16;;;17.90;73.05
18697;BME280;22617;43.690;27.956;2022-09-12T21:26:05;98358.72;;;17.78;73.11
18697;BME280;22617;43.690;27.956;2022-09-12T21:31:09;98356.06;;;17.78;72.78
18697;BME280;22617;43.690;27.956;2022-09-12T21:36:13;98352.78;;;17.73;73.05
18697;BME280;22617;43.690;27.956;2022-09-12T21:41:17;98356.94;;;17.78;72.45
18697;BME280;22617;43.690;27.956;2022-09-12T21:46:21;98354.81;;;17.66;72.86
18697;BME280;22617;43.690;27.956;2022-09-12T21:51:25;98350.41;;;17.67;73.14
18697;BME280;22617;43.690;27.956;2022-09-12T21:56:30;98356.03;;;17.58;73.43
18697;BME280;22617;43.690;27.956;2022-09-12T22:01:33;98367.34;;;17.61;73.85
18697;BME280;22617;43.690;27.956;2022-09-12T22:06:37;98389.88;;;17.68;73.40
18697;BME280;22617;43.690;27.956;2022-09-12T22:11:42;98398.13;;;17.81;72.29
18697;BME280;22617;43.690;27.956;2022-09-12T22:16:46;98400.31;;;17.50;73.51
18697;BME280;22617;43.690;27.956;2022-09-12T22:21:51;98398.31;;;17.34;73.38
18697;BME280;22617;43.690;27.956;2022-09-12T22:27:13;98392.88;;;17.37;74.75
18697;BME280;22617;43.690;27.956;2022-09-12T22:32:16;98404.59;;;17.09;75.78
18697;BME280;22617;43.690;27.956;2022-09-12T22:37:20;98398.84;;;16.99;76.58
18697;BME280;22617;43.690;27.956;2022-09-12T22:42:25;98398.97;;;16.96;75.39
18697;BME280;22617;43.690;27.956;2022-09-12T22:47:30;98400.06;;;16.69;74.50
18697;BME280;22617;43.690;27.956;2022-09-12T22:52:34;98402.53;;;16.48;72.75
18697;BME280;22617;43.690;27.956;2022-09-12T22:57:38;98406.38;;;16.40;72.24
18697;BME280;22617;43.690;27.956;2022-09-12T23:02:42;98410.31;;;16.51;71.30
18697;BME280;22617;43.690;27.956;2022-09-12T23:07:46;98411.75;;;16.60;70.73
18697;BME280;22617;43.690;27.956;2022-09-12T23:12:51;98416.72;;;16.44;69.81
18697;BME280;22617;43.690;27.956;2022-09-12T23:17:56;98405.25;;;16.22;70.04
18697;BME280;22617;43.690;27.956;2022-09-12T23:22:59;98404.91;;;16.31;69.61
18697;BME280;22617;43.690;27.956;2022-09-12T23:28:04;98415.00;;;16.43;69.63
18697;BME280;22617;43.690;27.956;2022-09-12T23:33:08;98424.03;;;16.36;69.84
18697;BME280;22617;43.690;27.956;2022-09-12T23:38:12;98428.03;;;16.46;70.45
18697;BME280;22617;43.690;27.956;2022-09-12T23:43:17;98431.34;;;16.51;70.31
18697;BME280;22617;43.690;27.956;2022-09-12T23:48:20;98433.19;;;16.49;70.31
18697;BME280;22617;43.690;27.956;2022-09-12T23:53:24;98442.38;;;16.38;69.94
18697;BME280;22617;43.690;27.956;2022-09-12T23:58:29;98451.25;;;16.35;70.48
